Time;durP1;ratioP1;P1;durP2;ratioP2;P2;SDS_P1;SDS_P2;PMS_P1;PMS_P2;Temp;Humidity;BMP_temperature;BMP_pressure;BME280_temperature;BME280_humidity;BME280_pressure;Samples;Min_cycle;Max_cycle;Signal;HPM_P1;HPM_P2
2023/10/28 00:00:50;;;;;;;15.38;9.15;;;10.90;99.90;;;;;;5074556;28;20118;-75
2023/10/28 00:03:16;;;;;;;15.18;9.88;;;10.90;99.90;;;;;;5073556;28;20044;-75
2023/10/28 00:05:42;;;;;;;15.23;8.93;;;11.00;99.90;;;;;;5093118;28;20028;-76
2023/10/28 00:08:07;;;;;;;15.45;9.55;;;11.00;99.90;;;;;;5074943;28;20129;-75
2023/10/28 00:10:35;;;;;;;17.33;11.00;;;11.00;99.90;;;;;;5074529;28;20036;-76
2023/10/28 00:13:07;;;;;;;17.90;11.65;;;11.10;99.90;;;;;;5092546;28;20036;-76
2023/10/28 00:15:32;;;;;;;18.27;11.60;;;10.90;99.90;;;;;;5093244;28;20089;-76
2023/10/28 00:17:58;;;;;;;18.23;11.63;;;10.80;99.90;;;;;;5058355;28;20044;-76
2023/10/28 00:20:23;;;;;;;18.48;10.93;;;10.80;99.90;;;;;;5054723;28;20067;-76
2023/10/28 00:22:53;;;;;;;19.75;12.02;;;10.80;99.90;;;;;;5090632;28;20040;-75
2023/10/28 00:25:23;;;;;;;18.83;11.43;;;10.80;99.90;;;;;;5074988;28;20044;-75
2023/10/28 00:27:48;;;;;;;19.08;12.25;;;10.80;99.90;;;;;;5093324;28;20068;-75
2023/10/28 00:30:14;;;;;;;21.42;13.43;;;10.90;99.90;;;;;;5074122;28;20080;-75
2023/10/28 00:32:41;;;;;;;19.63;12.90;;;10.80;99.90;;;;;;5090709;28;20028;-75
2023/10/28 00:35:08;;;;;;;24.58;14.18;;;10.90;99.90;;;;;;5075114;28;20538;-75
2023/10/28 00:37:34;;;;;;;19.95;12.30;;;10.90;99.90;;;;;;5092926;28;20496;-75
2023/10/28 00:40:00;;;;;;;19.13;11.70;;;11.10;99.90;;;;;;5092101;28;20046;-75
2023/10/28 00:42:26;;;;;;;22.67;13.30;;;11.10;99.90;;;;;;5092181;28;20048;-75
2023/10/28 00:44:54;;;;;;;22.15;13.00;;;11.20;99.90;;;;;;5092221;28;20047;-75
2023/10/28 00:47:22;;;;;;;24.08;13.98;;;11.10;99.90;;;;;;5092882;28;20043;-75
2023/10/28 00:49:49;;;;;;;24.17;13.77;;;11.00;99.90;;;;;;5091027;28;20040;-75
2023/10/28 00:52:14;;;;;;;23.67;15.70;;;10.90;99.90;;;;;;5107500;28;20054;-76
2023/10/28 00:54:40;;;;;;;20.33;12.45;;;10.90;99.90;;;;;;5104525;28;20045;-75
2023/10/28 00:57:06;;;;;;;24.77;16.83;;;11.00;99.90;;;;;;5072553;28;20045;-75
2023/10/28 00:59:32;;;;;;;29.05;17.52;;;10.90;99.90;;;;;;5079002;28;20036;-75
2023/10/28 01:01:57;;;;;;;26.10;16.55;;;10.90;99.90;;;;;;5091818;28;20036;-75
2023/10/28 01:04:23;;;;;;;26.52;17.17;;;10.80;99.90;;;;;;5091322;28;20044;-75
2023/10/28 01:06:49;;;;;;;25.67;17.02;;;11.00;99.90;;;;;;5092938;28;20070;-75
2023/10/28 01:09:15;;;;;;;26.02;16.17;;;11.00;99.90;;;;;;5064005;28;20078;-75
2023/10/28 01:11:40;;;;;;;22.42;14.65;;;11.00;99.90;;;;;;5095817;28;20043;-75
2023/10/28 01:14:06;;;;;;;31.08;17.83;;;11.10;99.90;;;;;;5093384;28;20467;-75
2023/10/28 01:16:33;;;;;;;27.88;17.60;;;11.00;99.90;;;;;;5077036;28;20516;-75
2023/10/28 01:18:59;;;;;;;27.10;17.50;;;10.90;99.90;;;;;;5095562;28;20047;-75
2023/10/28 01:21:26;;;;;;;29.02;17.63;;;10.90;99.90;;;;;;5078126;28;20115;-75
2023/10/28 01:23:52;;;;;;;29.20;17.35;;;10.80;99.90;;;;;;5086970;28;20076;-75
2023/10/28 01:26:18;;;;;;;26.33;15.00;;;10.90;99.90;;;;;;5076140;28;20033;-75
2023/10/28 01:28:44;;;;;;;26.05;16.25;;;10.90;99.90;;;;;;5075757;28;20037;-75
2023/10/28 01:31:09;;;;;;;28.48;17.80;;;10.90;99.90;;;;;;5075827;28;20040;-75
2023/10/28 01:33:35;;;;;;;30.90;17.98;;;11.00;99.90;;;;;;5109835;28;20048;-75
2023/10/28 01:36:00;;;;;;;25.40;15.70;;;10.90;99.90;;;;;;5095563;28;20086;-75
2023/10/28 01:38:26;;;;;;;26.52;16.55;;;11.00;99.90;;;;;;5078068;28;20044;-75
2023/10/28 01:40:52;;;;;;;27.05;17.30;;;11.10;99.90;;;;;;5077767;28;20185;-75
2023/10/28 01:43:19;;;;;;;29.15;18.00;;;11.00;99.90;;;;;;5077569;28;20040;-75
2023/10/28 01:45:45;;;;;;;26.40;17.25;;;10.90;99.90;;;;;;5078769;28;20555;-75
2023/10/28 01:48:12;;;;;;;28.08;17.42;;;10.90;99.90;;;;;;5074601;28;20414;-75
2023/10/28 01:50:37;;;;;;;27.45;16.20;;;10.90;99.90;;;;;;5108087;28;20388;-75
2023/10/28 01:53:03;;;;;;;23.55;14.23;;;10.90;99.90;;;;;;5077157;28;20032;-75
2023/10/28 01:55:29;;;;;;;26.23;16.98;;;11.00;99.90;;;;;;5075915;28;20580;-75
2023/10/28 01:57:55;;;;;;;28.42;17.75;;;11.00;99.90;;;;;;5095404;28;20060;-75
2023/10/28 02:00:30;;;;;;;25.15;16.25;;;10.90;99.90;;;;;;5094264;28;20036;-75
2023/10/28 02:02:57;;;;;;;24.13;15.50;;;10.90;99.90;;;;;;5095474;28;20036;-75
2023/10/28 02:05:23;;;;;;;23.83;15.77;;;10.80;99.90;;;;;;5083016;28;20040;-75
2023/10/28 02:07:49;;;;;;;25.75;15.82;;;10.90;99.90;;;;;;5077555;28;20039;-75
2023/10/28 02:10:14;;;;;;;26.50;14.88;;;10.90;99.90;;;;;;5095501;28;20043;-75
2023/10/28 02:12:40;;;;;;;25.27;15.93;;;10.90;99.90;;;;;;5077278;28;20373;-75
2023/10/28 02:15:08;;;;;;;22.45;14.93;;;10.90;99.90;;;;;;5066374;28;20441;-75
2023/10/28 02:17:38;;;;;;;22.60;14.98;;;10.90;99.90;;;;;;5075003;28;20040;-75
2023/10/28 02:20:06;;;;;;;27.20;16.20;;;10.90;99.90;;;;;;5056659;28;20052;-75
2023/10/28 02:22:32;;;;;;;24.40;15.52;;;10.90;99.90;;;;;;5074919;28;20064;-75
2023/10/28 02:24:58;;;;;;;22.55;13.13;;;10.90;99.90;;;;;;5068353;28;20060;-74
2023/10/28 02:27:23;;;;;;;22.00;14.88;;;10.90;99.90;;;;;;5093778;28;20081;-75
2023/10/28 02:29:49;;;;;;;22.70;15.48;;;10.90;99.90;;;;;;5093639;28;20046;-75
2023/10/28 02:32:15;;;;;;;26.95;16.63;;;10.80;99.90;;;;;;5092977;28;20036;-75
2023/10/28 02:34:41;;;;;;;24.75;16.52;;;10.70;99.90;;;;;;5075002;28;20043;-75
2023/10/28 02:37:07;;;;;;;26.70;16.33;;;10.70;99.90;;;;;;5093674;28;20113;-75
2023/10/28 02:39:33;;;;;;;27.35;15.73;;;10.60;99.90;;;;;;5076310;28;20044;-75
2023/10/28 02:42:00;;;;;;;23.67;14.25;;;10.70;99.90;;;;;;5094741;28;20127;-75
2023/10/28 02:44:26;;;;;;;24.20;15.02;;;10.60;99.90;;;;;;5093818;28;20123;-75
2023/10/28 02:46:53;;;;;;;23.88;15.52;;;10.60;99.90;;;;;;5088955;28;20420;-75
2023/10/28 02:49:19;;;;;;;22.77;14.63;;;10.60;99.90;;;;;;5093369;28;20119;-75
2023/10/28 02:51:44;;;;;;;22.42;13.38;;;10.60;99.90;;;;;;5093182;28;20127;-75
2023/10/28 02:54:10;;;;;;;25.40;16.20;;;10.70;99.90;;;;;;5092225;28;20373;-75
2023/10/28 02:56:36;;;;;;;22.38;13.75;;;10.70;99.90;;;;;;5082883;28;20055;-75
2023/10/28 02:59:05;;;;;;;23.35;14.50;;;10.60;99.90;;;;;;5094439;28;20044;-75
2023/10/28 03:01:31;;;;;;;21.85;15.07;;;10.50;99.90;;;;;;5094432;28;20036;-75
2023/10/28 03:03:56;;;;;;;21.75;14.35;;;10.50;99.90;;;;;;5091942;28;20131;-75
2023/10/28 03:06:22;;;;;;;22.35;14.00;;;10.60;99.90;;;;;;5079837;28;20035;-74
2023/10/28 03:08:47;;;;;;;24.42;14.40;;;10.50;99.90;;;;;;5093685;28;20110;-75
2023/10/28 03:11:13;;;;;;;22.50;13.70;;;10.50;99.90;;;;;;5076008;28;20044;-75
2023/10/28 03:13:38;;;;;;;21.77;13.45;;;10.60;99.90;;;;;;5093257;28;20051;-74
2023/10/28 03:16:04;;;;;;;20.75;13.68;;;10.60;99.90;;;;;;5093265;28;20075;-75
2023/10/28 03:18:30;;;;;;;21.42;13.70;;;10.60;99.90;;;;;;5092762;28;20122;-75
2023/10/28 03:20:56;;;;;;;19.10;12.57;;;10.60;99.90;;;;;;5093290;28;20162;-75
2023/10/28 03:23:22;;;;;;;22.77;13.82;;;10.50;99.90;;;;;;5054963;28;20040;-75
2023/10/28 03:25:48;;;;;;;20.23;12.88;;;10.50;99.90;;;;;;5073653;28;20036;-74
2023/10/28 03:28:14;;;;;;;18.13;9.98;;;10.50;99.90;;;;;;5089518;28;20048;-74
2023/10/28 03:30:39;;;;;;;18.48;11.32;;;10.60;99.90;;;;;;5092938;28;20178;-74
2023/10/28 03:33:05;;;;;;;18.90;11.98;;;10.70;99.90;;;;;;5092810;28;20032;-74
2023/10/28 03:35:30;;;;;;;22.00;12.18;;;10.60;99.90;;;;;;5075701;28;20044;-74
2023/10/28 03:37:56;;;;;;;16.70;9.80;;;10.60;99.90;;;;;;5092944;28;20042;-74
2023/10/28 03:40:22;;;;;;;18.25;11.35;;;10.60;99.90;;;;;;5093126;28;20050;-74
2023/10/28 03:42:47;;;;;;;17.65;11.45;;;10.60;99.90;;;;;;5075641;28;20087;-74
2023/10/28 03:45:14;;;;;;;21.77;11.82;;;10.60;99.90;;;;;;5071429;28;20557;-75
2023/10/28 03:47:40;;;;;;;19.08;11.43;;;10.50;99.90;;;;;;5078270;28;20040;-74
2023/10/28 03:50:06;;;;;;;19.25;11.40;;;10.50;99.90;;;;;;5093555;28;20044;-74
2023/10/28 03:52:32;;;;;;;19.75;12.00;;;10.40;99.90;;;;;;5075296;28;20058;-74
2023/10/28 03:54:58;;;;;;;15.27;9.40;;;10.40;99.90;;;;;;5091600;28;20046;-75
2023/10/28 03:57:23;;;;;;;14.73;9.75;;;10.50;99.90;;;;;;5075426;28;20055;-75
2023/10/28 03:59:49;;;;;;;17.55;12.77;;;10.70;99.90;;;;;;5074755;28;20504;-75
2023/10/28 04:02:17;;;;;;;19.80;11.35;;;10.60;99.90;;;;;;5093290;28;20036;-74
2023/10/28 04:04:43;;;;;;;21.48;11.73;;;10.60;99.90;;;;;;5091782;28;20047;-75
2023/10/28 04:07:08;;;;;;;23.73;12.20;;;10.50;99.90;;;;;;5092732;28;20035;-75
2023/10/28 04:09:35;;;;;;;21.55;11.93;;;10.40;99.90;;;;;;5092646;28;20048;-74
2023/10/28 04:12:00;;;;;;;18.75;11.93;;;10.40;99.90;;;;;;5093382;28;20067;-74
2023/10/28 04:14:26;;;;;;;18.35;12.15;;;10.40;99.90;;;;;;5092731;28;20152;-74
2023/10/28 04:16:52;;;;;;;19.55;11.55;;;10.40;99.90;;;;;;5087799;28;20055;-74
2023/10/28 04:19:17;;;;;;;18.55;11.32;;;10.40;99.90;;;;;;5090050;28;20040;-74
2023/10/28 04:21:43;;;;;;;19.83;12.13;;;10.40;99.90;;;;;;5075094;28;20062;-75
2023/10/28 04:24:10;;;;;;;22.55;11.88;;;10.40;99.90;;;;;;5089554;28;20037;-75
2023/10/28 04:26:36;;;;;;;20.02;11.50;;;10.40;99.90;;;;;;5107822;28;20043;-75
2023/10/28 04:29:03;;;;;;;22.92;11.82;;;10.40;99.90;;;;;;5074448;28;20051;-75
2023/10/28 04:31:29;;;;;;;23.25;11.98;;;10.40;99.90;;;;;;5093019;28;20119;-75
2023/10/28 04:33:55;;;;;;;20.17;12.02;;;10.40;99.90;;;;;;5058192;28;20075;-74
2023/10/28 04:36:21;;;;;;;21.27;12.30;;;10.40;99.90;;;;;;5080758;28;20086;-74
2023/10/28 04:38:47;;;;;;;18.27;10.77;;;10.40;99.90;;;;;;5091772;28;20040;-74
2023/10/28 04:41:13;;;;;;;20.88;11.40;;;10.50;99.90;;;;;;5092936;28;20109;-74
2023/10/28 04:43:39;;;;;;;19.73;10.95;;;10.50;99.90;;;;;;5096015;28;20400;-74
2023/10/28 04:46:05;;;;;;;21.70;12.18;;;10.50;99.90;;;;;;5093992;28;20051;-74
2023/10/28 04:48:32;;;;;;;19.60;12.38;;;10.50;99.90;;;;;;5063987;28;20040;-75
2023/10/28 04:50:58;;;;;;;20.40;11.77;;;10.50;99.90;;;;;;5095758;28;20040;-75
2023/10/28 04:53:23;;;;;;;19.42;11.27;;;10.50;99.90;;;;;;5096071;28;20485;-74
2023/10/28 04:55:50;;;;;;;22.85;11.68;;;10.50;99.90;;;;;;5082445;28;20028;-74
2023/10/28 04:58:16;;;;;;;19.90;12.30;;;10.50;99.90;;;;;;5094861;28;20412;-75
2023/10/28 05:00:42;;;;;;;20.08;11.95;;;10.50;99.90;;;;;;5096878;28;20044;-74
2023/10/28 05:03:08;;;;;;;18.77;11.88;;;10.50;99.90;;;;;;5061717;28;20043;-74
2023/10/28 05:05:34;;;;;;;25.58;13.43;;;10.50;99.90;;;;;;5095852;28;20052;-74
2023/10/28 05:07:59;;;;;;;20.52;11.10;;;10.50;99.90;;;;;;5085752;28;20040;-74
2023/10/28 05:10:25;;;;;;;25.50;13.35;;;10.60;99.90;;;;;;5095915;28;20472;-74
2023/10/28 05:12:51;;;;;;;20.42;12.38;;;10.50;99.90;;;;;;5096605;28;20028;-75
2023/10/28 05:15:16;;;;;;;17.95;11.52;;;10.50;99.90;;;;;;5095795;28;20036;-75
2023/10/28 05:17:43;;;;;;;20.30;12.32;;;10.50;99.90;;;;;;5079828;28;20035;-75
2023/10/28 05:20:09;;;;;;;21.58;12.13;;;10.70;99.90;;;;;;5096416;28;20045;-75
2023/10/28 05:22:38;;;;;;;21.70;12.38;;;10.50;99.90;;;;;;5096218;28;20044;-74
2023/10/28 05:25:07;;;;;;;22.00;11.80;;;10.60;99.90;;;;;;5094962;28;20108;-74
2023/10/28 05:27:33;;;;;;;23.08;12.50;;;10.50;99.90;;;;;;5094553;28;20043;-74
2023/10/28 05:29:59;;;;;;;19.70;12.45;;;10.50;99.90;;;;;;5094960;28;20040;-74
2023/10/28 05:32:25;;;;;;;20.38;11.80;;;10.50;99.90;;;;;;5077943;28;20049;-75
2023/10/28 05:34:50;;;;;;;19.80;10.85;;;10.50;99.90;;;;;;5077284;28;20048;-75
2023/10/28 05:37:16;;;;;;;21.58;12.65;;;10.50;99.90;;;;;;5095916;28;20097;-75
2023/10/28 05:39:42;;;;;;;18.83;10.98;;;10.50;99.90;;;;;;5090138;28;20446;-74
2023/10/28 05:42:08;;;;;;;20.50;12.10;;;10.50;99.90;;;;;;5096012;28;20043;-75
2023/10/28 05:44:35;;;;;;;19.42;11.40;;;10.50;99.90;;;;;;5093093;28;20039;-75
2023/10/28 05:47:01;;;;;;;19.67;12.30;;;10.60;99.90;;;;;;5095910;28;20120;-75
2023/10/28 05:49:27;;;;;;;20.90;12.05;;;10.50;99.90;;;;;;5095015;28;20119;-75
2023/10/28 05:51:53;;;;;;;20.30;11.95;;;10.50;99.90;;;;;;5067789;28;20044;-74
2023/10/28 05:54:20;;;;;;;20.05;10.93;;;10.50;99.90;;;;;;5074804;28;20122;-75
2023/10/28 05:56:46;;;;;;;20.02;12.52;;;10.50;99.90;;;;;;5094340;28;20052;-74
2023/10/28 05:59:11;;;;;;;19.58;12.38;;;10.50;99.90;;;;;;5077562;28;20055;-75
2023/10/28 06:01:37;;;;;;;20.55;12.25;;;10.60;99.90;;;;;;5093993;28;20024;-75
2023/10/28 06:04:03;;;;;;;22.00;11.13;;;10.50;99.90;;;;;;5092444;28;20040;-74
2023/10/28 06:06:29;;;;;;;19.25;10.52;;;10.50;99.90;;;;;;5077260;28;20473;-74
2023/10/28 06:08:57;;;;;;;20.70;11.00;;;10.50;99.90;;;;;;5095616;28;20042;-75
2023/10/28 06:11:23;;;;;;;19.05;9.93;;;10.50;99.90;;;;;;5094790;28;20473;-74
2023/10/28 06:13:48;;;;;;;20.45;11.10;;;10.50;99.90;;;;;;5094622;28;20040;-74
2023/10/28 06:16:14;;;;;;;21.35;10.85;;;10.50;99.90;;;;;;5076310;28;20050;-74
2023/10/28 06:18:40;;;;;;;19.52;11.13;;;10.60;99.90;;;;;;5095185;28;20499;-75
2023/10/28 06:21:06;;;;;;;21.38;10.27;;;10.60;99.90;;;;;;5095167;28;20032;-74
2023/10/28 06:23:32;;;;;;;18.52;9.60;;;10.60;99.90;;;;;;5093930;28;20102;-74
2023/10/28 06:25:57;;;;;;;18.02;9.43;;;10.50;99.90;;;;;;5060870;28;20512;-74
2023/10/28 06:28:23;;;;;;;17.35;9.77;;;10.50;99.90;;;;;;5073552;28;20051;-74
2023/10/28 06:30:49;;;;;;;20.15;10.40;;;10.60;99.90;;;;;;5074704;28;20055;-74
2023/10/28 06:33:15;;;;;;;16.80;9.45;;;10.60;99.90;;;;;;5082715;28;20073;-74
2023/10/28 06:35:41;;;;;;;18.83;9.52;;;10.60;99.90;;;;;;5094013;28;20088;-75
2023/10/28 06:38:07;;;;;;;16.05;9.35;;;10.60;99.90;;;;;;5094893;28;20478;-74
2023/10/28 06:40:35;;;;;;;15.40;8.82;;;10.60;99.90;;;;;;5076689;28;20084;-75
2023/10/28 06:43:01;;;;;;;16.33;9.07;;;10.60;99.90;;;;;;5075673;28;20043;-75
2023/10/28 06:45:28;;;;;;;15.20;8.95;;;10.60;99.90;;;;;;5078451;28;20036;-75
2023/10/28 06:47:53;;;;;;;13.63;7.85;;;10.60;99.90;;;;;;5093454;28;20040;-75
2023/10/28 06:50:22;;;;;;;15.05;8.25;;;10.60;99.90;;;;;;5076466;28;20536;-75
2023/10/28 06:52:50;;;;;;;15.77;8.40;;;10.60;99.90;;;;;;5094709;28;20032;-75
2023/10/28 06:55:17;;;;;;;12.45;7.93;;;10.60;99.90;;;;;;5087957;28;20036;-75
2023/10/28 06:57:44;;;;;;;14.52;8.38;;;10.60;99.90;;;;;;5094394;28;20052;-75
2023/10/28 07:00:13;;;;;;;14.05;7.85;;;10.60;99.90;;;;;;5080099;28;20102;-75
2023/10/28 07:02:43;;;;;;;12.48;7.60;;;10.70;99.90;;;;;;5074660;28;20048;-75
2023/10/28 07:05:10;;;;;;;13.93;7.68;;;10.70;99.90;;;;;;5093157;28;20400;-75
2023/10/28 07:07:39;;;;;;;16.25;7.95;;;10.70;99.90;;;;;;5093622;28;20390;-75
2023/10/28 07:10:05;;;;;;;12.50;6.97;;;10.70;99.90;;;;;;5091865;28;20119;-75
2023/10/28 07:12:31;;;;;;;12.05;7.47;;;10.80;99.90;;;;;;5066013;28;20108;-75
2023/10/28 07:14:58;;;;;;;11.48;7.13;;;10.70;99.90;;;;;;5074413;28;20068;-75
2023/10/28 07:17:24;;;;;;;10.20;6.40;;;10.80;99.90;;;;;;5091109;28;20047;-75
2023/10/28 07:19:50;;;;;;;14.02;6.22;;;10.80;99.90;;;;;;5090602;28;20039;-75
2023/10/28 07:22:20;;;;;;;10.80;6.25;;;10.80;99.90;;;;;;5065078;28;20048;-75
2023/10/28 07:24:46;;;;;;;12.00;6.03;;;10.80;99.90;;;;;;5085177;28;20462;-75
2023/10/28 07:27:11;;;;;;;14.27;6.68;;;10.90;99.90;;;;;;5077685;28;20039;-75
2023/10/28 07:29:37;;;;;;;10.77;6.10;;;10.80;99.90;;;;;;5093532;28;20036;-75
2023/10/28 07:32:04;;;;;;;11.98;6.65;;;10.80;99.90;;;;;;5088661;28;20480;-75
2023/10/28 07:34:30;;;;;;;11.68;6.35;;;10.70;99.90;;;;;;5075534;28;20051;-76
2023/10/28 07:36:59;;;;;;;10.55;6.55;;;10.70;99.90;;;;;;5063736;28;20507;-75
2023/10/28 07:39:25;;;;;;;11.27;5.72;;;10.80;99.90;;;;;;5071595;28;20496;-75
2023/10/28 07:41:56;;;;;;;10.57;6.50;;;10.80;99.90;;;;;;5103808;28;20047;-75
2023/10/28 07:44:22;;;;;;;10.60;6.30;;;10.80;99.90;;;;;;5091987;28;20119;-75
2023/10/28 07:46:48;;;;;;;11.18;6.18;;;10.80;99.90;;;;;;5104552;28;20162;-75
2023/10/28 07:49:13;;;;;;;10.40;5.80;;;10.80;99.90;;;;;;5093397;28;20036;-75
2023/10/28 07:51:40;;;;;;;10.40;5.30;;;10.80;99.90;;;;;;5077338;28;20044;-75
2023/10/28 07:54:06;;;;;;;11.90;5.70;;;10.80;99.90;;;;;;5079468;28;20050;-75
2023/10/28 07:56:32;;;;;;;8.82;5.35;;;10.90;99.90;;;;;;5073147;28;20039;-75
2023/10/28 07:59:01;;;;;;;9.30;5.40;;;10.80;99.90;;;;;;5092787;28;20552;-75
2023/10/28 08:01:28;;;;;;;11.00;6.00;;;10.80;99.90;;;;;;5092025;28;20577;-75
2023/10/28 08:03:53;;;;;;;12.07;5.40;;;10.80;99.90;;;;;;5091956;28;20047;-75
2023/10/28 08:06:19;;;;;;;10.57;5.53;;;10.90;99.90;;;;;;5093023;28;20036;-75
2023/10/28 08:08:46;;;;;;;10.65;5.50;;;10.90;99.90;;;;;;5091540;28;20051;-75
2023/10/28 08:11:20;;;;;;;10.48;5.55;;;10.90;99.90;;;;;;5068332;28;20040;-75
2023/10/28 08:13:47;;;;;;;9.95;5.13;;;10.90;99.90;;;;;;5078771;28;20431;-75
2023/10/28 08:16:16;;;;;;;10.32;5.15;;;10.90;99.90;;;;;;5088746;28;20037;-75
2023/10/28 08:18:41;;;;;;;9.77;5.00;;;10.90;99.90;;;;;;5096540;28;20122;-75
2023/10/28 08:21:09;;;;;;;8.68;4.72;;;10.90;99.90;;;;;;5101125;28;20584;-75
2023/10/28 08:23:38;;;;;;;8.85;5.03;;;10.90;99.90;;;;;;5089895;28;20043;-75
2023/10/28 08:26:05;;;;;;;11.52;5.30;;;10.90;99.90;;;;;;5090416;28;20484;-75
2023/10/28 08:28:31;;;;;;;10.75;4.25;;;11.00;99.90;;;;;;5072919;28;20044;-75
2023/10/28 08:30:57;;;;;;;10.63;4.80;;;11.10;99.90;;;;;;5072456;28;20032;-75
2023/10/28 08:33:22;;;;;;;10.85;4.65;;;11.00;99.90;;;;;;5088881;28;20060;-75
2023/10/28 08:35:48;;;;;;;10.70;4.30;;;11.00;99.90;;;;;;5091982;28;20060;-75
2023/10/28 08:38:17;;;;;;;8.73;4.07;;;11.10;99.90;;;;;;5090255;28;20105;-75
2023/10/28 08:40:46;;;;;;;8.43;4.30;;;11.30;99.90;;;;;;5072979;28;20484;-75
2023/10/28 08:43:19;;;;;;;8.90;3.70;;;11.30;99.90;;;;;;5067709;28;20039;-75
2023/10/28 08:45:46;;;;;;;8.25;3.15;;;11.20;99.90;;;;;;5105333;28;20036;-75
2023/10/28 08:48:15;;;;;;;8.65;3.90;;;11.30;99.90;;;;;;5071899;28;20039;-75
2023/10/28 08:50:47;;;;;;;7.97;4.13;;;11.20;99.90;;;;;;5057382;28;20097;-75
2023/10/28 08:53:16;;;;;;;7.75;3.38;;;11.20;99.90;;;;;;5071802;28;20392;-75
2023/10/28 08:55:44;;;;;;;7.78;3.63;;;11.30;99.90;;;;;;5106447;28;20085;-75
2023/10/28 08:58:10;;;;;;;8.25;4.00;;;11.30;99.90;;;;;;5090239;28;20549;-75
2023/10/28 09:00:38;;;;;;;7.93;3.40;;;11.30;99.90;;;;;;5091587;28;20342;-75
2023/10/28 09:03:04;;;;;;;6.60;3.28;;;11.30;99.90;;;;;;5091562;28;20047;-75
2023/10/28 09:05:30;;;;;;;9.00;3.60;;;11.30;99.90;;;;;;5072024;28;20052;-75
2023/10/28 09:07:56;;;;;;;5.78;3.05;;;11.40;99.90;;;;;;5089883;28;20059;-75
2023/10/28 09:10:22;;;;;;;9.15;2.95;;;11.30;99.90;;;;;;5054885;28;20032;-75
2023/10/28 09:12:50;;;;;;;8.55;3.13;;;11.40;99.90;;;;;;5093180;28;20103;-75
2023/10/28 09:15:16;;;;;;;6.60;3.03;;;11.50;99.90;;;;;;5058218;28;20043;-75
2023/10/28 09:17:42;;;;;;;6.60;3.33;;;11.40;99.90;;;;;;5099074;28;20048;-75
2023/10/28 09:20:11;;;;;;;13.77;3.95;;;11.40;99.90;;;;;;5088963;28;20036;-75
2023/10/28 09:22:40;;;;;;;6.43;2.92;;;11.40;99.90;;;;;;5107537;28;20032;-75
2023/10/28 09:25:08;;;;;;;7.50;3.40;;;11.40;99.90;;;;;;5101761;28;20111;-74
2023/10/28 09:27:33;;;;;;;8.63;3.67;;;11.40;99.90;;;;;;5052090;28;20044;-74
2023/10/28 09:30:07;;;;;;;8.55;3.78;;;11.30;99.90;;;;;;5086386;28;20035;-74
2023/10/28 09:32:34;;;;;;;11.93;3.60;;;11.40;99.90;;;;;;5076731;28;20502;-74
2023/10/28 09:35:07;;;;;;;8.05;3.63;;;11.40;99.90;;;;;;5044209;28;20050;-75
2023/10/28 09:37:40;;;;;;;8.50;3.20;;;11.50;99.90;;;;;;5075698;28;20459;-74
2023/10/28 09:40:12;;;;;;;6.25;3.17;;;11.50;99.90;;;;;;5093742;28;20496;-74
2023/10/28 09:42:38;;;;;;;;;;;11.60;99.90;;;;;;5075782;28;20040;-75
2023/10/28 09:45:06;;;;;;;9.15;3.45;;;11.60;99.90;;;;;;5058880;28;19920;-75
2023/10/28 09:48:05;;;;;;;8.63;3.75;;;11.70;99.90;;;;;;5094534;28;20036;-75
2023/10/28 09:50:36;;;;;;;8.88;3.50;;;11.60;99.90;;;;;;5078460;28;20106;-75
2023/10/28 09:53:03;;;;;;;8.02;3.83;;;11.60;99.90;;;;;;5092482;28;20064;-75
2023/10/28 09:55:37;;;;;;;9.73;4.25;;;11.60;99.90;;;;;;5092913;28;20097;-75
2023/10/28 09:58:17;;;;;;;8.13;4.00;;;11.90;99.90;;;;;;5093438;28;20063;-75
2023/10/28 10:00:47;;;;;;;10.15;4.20;;;11.80;99.90;;;;;;5074449;28;20059;-75
2023/10/28 10:03:31;;;;;;;7.55;3.58;;;11.80;99.90;;;;;;5076879;28;20055;-75
2023/10/28 10:05:57;;;;;;;9.35;3.35;;;11.70;99.90;;;;;;5057568;28;20369;-75
2023/10/28 10:08:24;;;;;;;7.03;3.28;;;11.90;99.90;;;;;;5093254;28;20036;-75
2023/10/28 10:10:55;;;;;;;9.77;3.45;;;11.80;99.90;;;;;;5094988;28;20047;-75
2023/10/28 10:13:21;;;;;;;10.82;3.55;;;11.90;99.90;;;;;;5094078;28;20431;-75
2023/10/28 10:16:00;;;;;;;7.40;3.25;;;11.90;99.90;;;;;;5073598;28;20458;-75
2023/10/28 10:18:38;;;;;;;6.35;3.15;;;11.90;99.90;;;;;;5088676;28;20044;-75
2023/10/28 10:21:10;;;;;;;7.05;3.42;;;11.80;99.90;;;;;;5074132;28;20040;-75
2023/10/28 10:23:43;;;;;;;7.90;3.05;;;11.80;99.90;;;;;;5110729;28;20488;-75
2023/10/28 10:26:31;;;;;;;8.88;3.38;;;11.80;99.90;;;;;;5067398;28;20400;-75
2023/10/28 10:28:58;;;;;;;7.82;3.00;;;11.80;99.90;;;;;;5087142;28;20043;-75
2023/10/28 10:31:33;;;;;;;6.88;3.08;;;11.80;99.90;;;;;;5081107;28;20044;-75
2023/10/28 10:34:09;;;;;;;8.15;3.42;;;11.80;99.90;;;;;;5071362;28;20073;-75
2023/10/28 10:36:43;;;;;;;9.65;3.15;;;11.90;99.90;;;;;;5093040;28;20393;-75
2023/10/28 10:39:16;;;;;;;8.75;2.97;;;11.80;99.90;;;;;;5079352;28;20036;-75
2023/10/28 10:41:52;;;;;;;8.23;3.05;;;11.80;99.90;;;;;;5073745;28;20040;-75
2023/10/28 10:44:31;;;;;;;9.98;3.25;;;11.90;99.90;;;;;;5073842;28;20049;-75
2023/10/28 10:46:57;;;;;;;8.90;3.53;;;11.80;99.90;;;;;;5092787;28;20040;-75
2023/10/28 10:49:24;;;;;;;9.07;3.65;;;12.10;99.90;;;;;;5093253;28;20078;-75
2023/10/28 10:51:50;;;;;;;12.10;5.65;;;12.10;99.90;;;;;;5074974;28;20044;-75
2023/10/28 10:54:19;;;;;;;13.98;5.88;;;11.90;99.90;;;;;;5058259;28;20476;-75
2023/10/28 10:56:45;;;;;;;10.20;4.95;;;12.00;99.90;;;;;;5093414;28;20048;-75
2023/10/28 10:59:12;;;;;;;11.32;5.53;;;12.00;99.90;;;;;;5051227;28;20082;-75
2023/10/28 11:01:40;;;;;;;7.18;2.70;;;12.00;99.90;;;;;;5093078;28;20050;-75
2023/10/28 11:04:07;;;;;;;11.45;4.07;;;12.20;99.90;;;;;;5093537;28;20059;-75
2023/10/28 11:06:33;;;;;;;12.55;5.22;;;12.10;99.90;;;;;;5074834;28;20512;-75
2023/10/28 11:09:05;;;;;;;11.65;5.47;;;12.10;99.90;;;;;;5096056;28;20032;-75
2023/10/28 11:11:35;;;;;;;;;;;12.20;99.90;;;;;;5073544;28;20039;-75
2023/10/28 11:14:05;;;;;;;6.95;3.30;;;12.20;99.90;;;;;;5075658;28;19920;-75
2023/10/28 11:16:32;;;;;;;5.00;2.20;;;12.20;99.90;;;;;;5046177;28;20044;-75
2023/10/28 11:19:02;;;;;;;8.90;3.28;;;12.40;99.90;;;;;;5056416;28;20039;-75
2023/10/28 11:21:30;;;;;;;7.50;2.13;;;12.20;99.90;;;;;;5082728;28;20051;-75
2023/10/28 11:23:56;;;;;;;9.57;3.38;;;12.20;99.90;;;;;;5091884;28;20028;-75
2023/10/28 11:26:23;;;;;;;8.70;2.53;;;12.30;99.90;;;;;;5073996;28;20516;-75
2023/10/28 11:28:48;;;;;;;8.68;2.45;;;12.40;99.90;;;;;;5095583;28;20078;-75
2023/10/28 11:31:19;;;;;;;7.85;3.20;;;12.30;99.90;;;;;;5080191;28;20158;-78
2023/10/28 11:33:45;;;;;;;4.38;2.05;;;12.30;99.90;;;;;;5091712;28;20593;-86
2023/10/28 11:36:11;;;;;;;8.77;3.30;;;12.30;99.90;;;;;;5093106;28;20039;-83
2023/10/28 11:38:37;;;;;;;8.95;2.63;;;12.40;99.90;;;;;;5091606;28;20488;-81
2023/10/28 11:41:08;;;;;;;8.25;3.10;;;12.40;99.90;;;;;;5090877;28;20028;-80
2023/10/28 11:43:34;;;;;;;8.03;2.40;;;12.50;99.90;;;;;;5088386;28;20622;-78
2023/10/28 11:46:00;;;;;;;5.90;2.65;;;12.50;99.90;;;;;;5092145;28;20111;-79
2023/10/28 11:48:26;;;;;;;6.38;1.60;;;12.40;99.90;;;;;;5092055;28;20047;-82
2023/10/28 11:50:52;;;;;;;4.53;1.80;;;12.40;99.90;;;;;;5087765;28;20039;-76
2023/10/28 11:53:25;;;;;;;7.10;2.78;;;12.70;99.90;;;;;;5090803;28;20036;-76
2023/10/28 11:55:51;;;;;;;5.75;2.65;;;12.50;99.90;;;;;;5072916;28;20029;-76
2023/10/28 11:58:17;;;;;;;7.80;2.80;;;12.50;99.90;;;;;;5075105;28;20404;-76
2023/10/28 12:00:50;;;;;;;9.52;2.83;;;12.50;99.90;;;;;;5092246;28;20067;-76
2023/10/28 12:03:17;;;;;;;8.80;2.90;;;12.60;99.90;;;;;;5092308;28;20036;-76
2023/10/28 12:05:43;;;;;;;8.32;2.70;;;12.50;99.90;;;;;;5088509;28;20043;-76
2023/10/28 12:08:11;;;;;;;6.75;2.40;;;12.50;99.90;;;;;;5072373;28;20036;-76
2023/10/28 12:10:38;;;;;;;7.82;2.67;;;12.50;99.90;;;;;;5107249;28;20036;-76
2023/10/28 12:13:04;;;;;;;8.55;2.60;;;12.50;99.90;;;;;;5088467;28;20039;-76
2023/10/28 12:15:29;;;;;;;9.60;2.33;;;12.50;99.90;;;;;;5091946;28;20400;-76
2023/10/28 12:17:55;;;;;;;7.20;2.90;;;12.70;99.90;;;;;;5072861;28;20052;-76
2023/10/28 12:20:20;;;;;;;6.32;2.42;;;12.70;99.90;;;;;;5073250;28;20441;-76
2023/10/28 12:22:46;;;;;;;10.75;2.42;;;12.70;99.90;;;;;;5090958;28;20116;-76
2023/10/28 12:25:13;;;;;;;7.85;2.05;;;12.70;99.90;;;;;;5089515;28;20562;-77
2023/10/28 12:27:39;;;;;;;5.85;2.25;;;12.70;99.90;;;;;;5073296;28;20544;-76
2023/10/28 12:30:08;;;;;;;8.15;2.67;;;12.80;99.90;;;;;;5073965;28;20127;-76
2023/10/28 12:32:34;;;;;;;7.10;2.33;;;12.70;99.90;;;;;;5069073;28;20485;-76
2023/10/28 12:35:00;;;;;;;6.22;2.30;;;12.60;99.90;;;;;;5073568;28;20083;-76